createdAt,value
2023-05-25T00:01:24.581Z,97687.00
2023-05-25T00:03:52.924Z,97685.16
2023-05-25T00:06:20.206Z,97688.38
2023-05-25T00:08:48.755Z,97683.63
2023-05-25T00:11:19.588Z,97680.34
2023-05-25T00:13:46.615Z,97684.78
2023-05-25T00:16:13.668Z,97681.28
2023-05-25T00:18:40.718Z,97670.28
2023-05-25T00:21:07.819Z,97683.78
2023-05-25T00:23:34.936Z,97686.88
2023-05-25T00:26:03.576Z,97684.72
2023-05-25T00:28:30.622Z,97681.88
2023-05-25T00:30:57.703Z,97675.94
2023-05-25T00:33:25.097Z,97677.78
2023-05-25T00:35:54.260Z,97678.25
2023-05-25T00:38:21.815Z,97688.25
2023-05-25T00:40:48.976Z,97685.25
2023-05-25T00:43:16.208Z,97689.09
2023-05-25T00:45:43.470Z,97681.13
2023-05-25T00:48:11.338Z,97685.06
2023-05-25T00:50:43.148Z,97682.94
2023-05-25T00:53:11.662Z,97687.56
2023-05-25T00:55:49.907Z,97685.53
2023-05-25T00:58:22.344Z,97683.75
2023-05-25T01:00:53.629Z,97685.22
2023-05-25T01:03:27.979Z,97680.75
2023-05-25T01:05:57.615Z,97682.34
2023-05-25T01:08:25.857Z,97675.41
2023-05-25T01:10:54.255Z,97674.75
2023-05-25T01:13:21.623Z,97674.75
2023-05-25T01:15:49.999Z,97675.09
2023-05-25T01:18:18.316Z,97676.06
2023-05-25T01:21:00.276Z,97676.28
2023-05-25T01:23:32.952Z,97678.84
2023-05-25T01:26:03.682Z,97668.28
2023-05-25T01:28:46.968Z,97679.50
2023-05-25T01:31:16.308Z,97672.72
2023-05-25T01:33:44.897Z,97671.06
2023-05-25T01:36:12.058Z,97672.22
2023-05-25T01:38:39.297Z,97672.94
2023-05-25T01:41:06.342Z,97669.78
2023-05-25T01:43:33.336Z,97664.16
2023-05-25T01:46:28.295Z,97660.97
2023-05-25T01:49:08.779Z,97660.91
2023-05-25T01:51:41.637Z,97658.91
2023-05-25T01:54:25.543Z,97662.25
2023-05-25T01:56:55.137Z,97668.47
2023-05-25T01:59:24.776Z,97665.53
2023-05-25T02:01:53.778Z,97663.34
2023-05-25T02:04:22.389Z,97657.97
2023-05-25T02:06:52.054Z,97671.97
2023-05-25T02:09:20.742Z,97674.84
2023-05-25T02:11:47.815Z,97679.63
2023-05-25T02:14:16.169Z,97672.56
2023-05-25T02:16:46.125Z,97677.19
2023-05-25T02:19:15.120Z,97677.16
2023-05-25T02:21:42.871Z,97678.84
2023-05-25T02:24:10.441Z,97681.97
2023-05-25T02:26:39.134Z,97682.28
2023-05-25T02:29:06.668Z,97682.78
2023-05-25T02:31:33.846Z,97692.03
2023-05-25T02:34:01.899Z,97689.03
2023-05-25T02:36:29.009Z,97694.13
2023-05-25T02:38:56.046Z,97693.16
2023-05-25T02:41:24.459Z,97693.00
2023-05-25T02:43:51.649Z,97696.16
2023-05-25T02:46:18.979Z,97699.03
2023-05-25T02:48:47.317Z,97703.16
2023-05-25T02:51:14.667Z,97700.53
2023-05-25T02:53:41.955Z,97699.72
2023-05-25T02:56:10.498Z,97695.25
2023-05-25T02:58:38.867Z,97705.78
2023-05-25T03:01:18.582Z,97705.41
2023-05-25T03:03:52.713Z,97707.28
2023-05-25T03:06:23.152Z,97710.78
2023-05-25T03:08:54.688Z,97702.03
2023-05-25T03:11:22.689Z,97707.47
2023-05-25T03:13:51.790Z,97709.91
2023-05-25T03:16:20.907Z,97709.25
2023-05-25T03:18:48.927Z,97717.16
2023-05-25T03:21:16.548Z,97713.22
2023-05-25T03:23:44.512Z,97723.28
2023-05-25T03:26:11.648Z,97720.47
2023-05-25T03:28:39.860Z,97720.47
2023-05-25T03:31:07.554Z,97717.84
2023-05-25T03:33:34.809Z,97717.50
2023-05-25T03:36:02.165Z,97711.19
2023-05-25T03:38:29.263Z,97716.97
2023-05-25T03:40:56.368Z,97716.94
2023-05-25T03:43:23.383Z,97723.81
2023-05-25T03:45:50.547Z,97722.31
2023-05-25T03:48:17.627Z,97725.59
2023-05-25T03:50:44.718Z,97729.97
2023-05-25T03:53:11.732Z,97727.13
2023-05-25T03:55:39.317Z,97738.88
2023-05-25T03:58:06.397Z,97732.78
2023-05-25T04:00:33.453Z,97731.91
2023-05-25T04:03:00.614Z,97742.31
2023-05-25T04:05:27.859Z,97740.34
2023-05-25T04:07:57.727Z,97746.56
2023-05-25T04:10:24.738Z,97737.94
2023-05-25T04:12:52.076Z,97744.34
2023-05-25T04:15:21.431Z,97739.72
2023-05-25T04:18:03.185Z,97740.31
2023-05-25T04:20:30.805Z,97737.66
2023-05-25T04:22:57.834Z,97743.38
2023-05-25T04:25:28.632Z,97737.59
2023-05-25T04:27:56.914Z,97743.09
2023-05-25T04:30:57.311Z,97743.59
2023-05-25T04:33:47.585Z,97743.38
2023-05-25T04:36:18.642Z,97751.28
2023-05-25T04:38:48.069Z,97756.22
2023-05-25T04:41:15.928Z,97752.63
2023-05-25T04:44:04.573Z,97754.91
2023-05-25T04:46:37.617Z,97757.63
2023-05-25T04:49:05.972Z,97762.13
2023-05-25T04:51:33.138Z,97764.59
2023-05-25T04:54:00.366Z,97765.03
2023-05-25T04:56:28.206Z,97766.50
2023-05-25T04:58:55.272Z,97775.50
2023-05-25T05:01:22.496Z,97774.09
2023-05-25T05:03:50.074Z,97772.00
2023-05-25T05:06:18.138Z,97782.03
2023-05-25T05:08:45.845Z,97781.19
2023-05-25T05:11:13.023Z,97778.47
2023-05-25T05:13:40.166Z,97777.88
2023-05-25T05:16:08.326Z,97778.66
2023-05-25T05:18:35.438Z,97781.50
2023-05-25T05:21:02.507Z,97780.00
2023-05-25T05:23:29.759Z,97779.16
2023-05-25T05:25:56.933Z,97781.44
2023-05-25T05:28:27.489Z,97784.31
2023-05-25T05:30:54.815Z,97785.34
2023-05-25T05:33:24.315Z,97780.44
2023-05-25T05:35:52.523Z,97781.66
2023-05-25T05:38:21.826Z,97783.25
2023-05-25T05:40:48.942Z,97796.25
2023-05-25T05:43:20.984Z,97794.81
2023-05-25T05:45:48.068Z,97806.53
2023-05-25T05:48:15.528Z,97799.34
2023-05-25T05:50:42.920Z,97803.03
2023-05-25T05:53:11.608Z,97809.97
2023-05-25T05:55:38.701Z,97801.34
2023-05-25T05:58:05.821Z,97816.72
2023-05-25T06:00:32.816Z,97817.94
2023-05-25T06:03:01.016Z,97808.47
2023-05-25T06:05:30.232Z,97818.34
2023-05-25T06:07:58.349Z,97809.56
2023-05-25T06:10:25.395Z,97806.28
2023-05-25T06:12:52.914Z,97812.47
2023-05-25T06:15:20.271Z,97814.38
2023-05-25T06:17:49.946Z,97812.59
2023-05-25T06:20:17.929Z,97812.00
2023-05-25T06:22:46.232Z,97810.00
2023-05-25T06:25:14.074Z,97812.56
2023-05-25T06:27:41.139Z,97809.41
2023-05-25T06:30:08.725Z,97811.09
2023-05-25T06:32:36.917Z,97809.84
2023-05-25T06:35:05.177Z,97804.97
2023-05-25T06:37:38.168Z,97819.78
2023-05-25T06:40:10.534Z,97819.53
2023-05-25T06:42:38.109Z,97818.31
2023-05-25T06:45:06.671Z,97814.91
2023-05-25T06:47:34.022Z,97820.97
2023-05-25T06:50:01.789Z,97828.66
2023-05-25T06:52:28.955Z,97827.75
2023-05-25T06:54:56.976Z,97823.47
2023-05-25T06:57:24.539Z,97816.97
2023-05-25T06:59:51.626Z,97823.13
2023-05-25T07:02:20.643Z,97818.81
2023-05-25T07:04:47.957Z,97820.91
2023-05-25T07:07:15.146Z,97816.16
2023-05-25T07:09:42.282Z,97814.91
2023-05-25T07:12:11.195Z,97812.84
2023-05-25T07:14:38.564Z,97822.22
2023-05-25T07:17:05.905Z,97813.72
2023-05-25T07:19:33.011Z,97819.41
2023-05-25T07:22:00.063Z,97818.22
2023-05-25T07:24:27.028Z,97817.78
2023-05-25T07:26:54.252Z,97822.47
2023-05-25T07:29:21.337Z,97820.34
2023-05-25T07:31:48.562Z,97822.50
2023-05-25T07:34:15.722Z,97828.78
2023-05-25T07:36:42.753Z,97826.72
2023-05-25T07:39:11.418Z,97822.78
2023-05-25T07:41:39.252Z,97825.53
2023-05-25T07:44:06.363Z,97819.66
2023-05-25T07:46:33.418Z,97821.56
2023-05-25T07:49:00.661Z,97814.38
2023-05-25T07:51:30.345Z,97820.22
2023-05-25T07:53:58.514Z,97825.53
2023-05-25T07:56:26.721Z,97824.31
2023-05-25T07:58:53.850Z,97829.66
2023-05-25T08:01:21.467Z,97827.81
2023-05-25T08:03:50.161Z,97830.72
2023-05-25T08:06:17.622Z,97822.06
2023-05-25T08:08:45.249Z,97831.97
2023-05-25T08:11:12.636Z,97834.34
2023-05-25T08:13:39.744Z,97830.91
2023-05-25T08:16:06.916Z,97827.88
2023-05-25T08:18:33.956Z,97836.75
2023-05-25T08:21:01.610Z,97834.06
2023-05-25T08:23:28.642Z,97831.94
2023-05-25T08:25:55.799Z,97828.97
2023-05-25T08:28:22.965Z,97830.09
2023-05-25T08:30:50.237Z,97814.16
2023-05-25T08:33:17.980Z,97816.69
2023-05-25T08:35:45.373Z,97815.19
2023-05-25T08:38:12.705Z,97823.09
2023-05-25T08:40:42.434Z,97828.69
2023-05-25T08:43:09.471Z,97825.78
2023-05-25T08:45:39.449Z,97825.66
2023-05-25T08:48:12.474Z,97829.34
2023-05-25T08:50:41.447Z,97837.19
2023-05-25T08:53:12.075Z,97832.78
2023-05-25T08:55:43.633Z,97836.38
2023-05-25T08:58:17.623Z,97840.84
2023-05-25T09:00:55.250Z,97838.56
2023-05-25T09:03:23.236Z,97835.13
2023-05-25T09:05:51.299Z,97836.38
2023-05-25T09:08:20.007Z,97834.22
2023-05-25T09:10:47.306Z,97841.81
2023-05-25T09:13:21.771Z,97840.06
2023-05-25T09:15:50.783Z,97825.59
2023-05-25T09:18:17.996Z,97828.75
2023-05-25T09:20:46.985Z,97828.16
2023-05-25T09:23:15.548Z,97823.22
2023-05-25T09:25:44.150Z,97823.84
2023-05-25T09:30:41.823Z,97826.28
2023-05-25T09:33:19.116Z,97828.69
2023-05-25T09:35:46.770Z,97836.59
2023-05-25T09:38:16.349Z,97839.31
2023-05-25T09:40:44.056Z,97838.91
2023-05-25T09:43:17.254Z,97837.25
2023-05-25T10:17:24.720Z,97859.53
2023-05-25T10:19:59.855Z,97859.00
2023-05-25T10:22:33.994Z,97857.19
2023-05-25T10:25:15.342Z,97856.69
2023-05-25T10:27:47.873Z,97856.56
2023-05-25T10:30:16.548Z,97861.81
2023-05-25T10:32:45.502Z,97866.34
2023-05-25T10:35:14.238Z,97863.69
2023-05-25T10:37:42.403Z,97865.00
2023-05-25T10:40:10.473Z,97859.44
2023-05-25T10:42:38.260Z,97850.16
2023-05-25T10:45:07.683Z,97844.22
2023-05-25T10:47:42.211Z,97843.22
2023-05-25T10:50:34.846Z,97845.09
2023-05-25T10:53:12.786Z,97840.41
2023-05-25T10:55:52.051Z,97834.22
2023-05-25T10:58:21.095Z,97826.44
2023-05-25T11:01:12.622Z,97833.47
2023-05-25T11:04:17.291Z,97837.66
2023-05-25T11:06:47.025Z,97836.28
2023-05-25T11:09:27.879Z,97833.22
2023-05-25T11:11:59.835Z,97833.56
2023-05-25T11:14:27.975Z,97838.16
2023-05-25T11:17:14.498Z,97824.94
2023-05-25T11:19:52.228Z,97816.91
2023-05-25T11:22:23.160Z,97822.44
2023-05-25T11:24:52.242Z,97826.03
2023-05-25T11:27:28.100Z,97820.78
2023-05-25T11:29:58.886Z,97824.41
2023-05-25T11:32:27.082Z,97810.84
2023-05-25T11:34:55.215Z,97804.69
2023-05-25T11:37:25.003Z,97811.84
2023-05-25T11:39:53.416Z,97804.13
2023-05-25T11:42:23.126Z,97793.84
2023-05-25T11:44:50.504Z,97792.38
2023-05-25T11:47:23.348Z,97796.03
2023-05-25T11:49:50.970Z,97785.19
2023-05-25T11:52:20.435Z,97774.63
2023-05-25T11:54:47.584Z,97778.97
2023-05-25T11:57:19.782Z,97781.81
2023-05-25T11:59:51.698Z,97779.44
2023-05-25T12:02:19.559Z,97762.53
2023-05-25T12:04:57.881Z,97755.63
2023-05-25T12:07:26.579Z,97751.41
2023-05-25T12:10:06.004Z,97750.34
2023-05-25T12:12:47.760Z,97744.47
2023-05-25T12:15:22.050Z,97746.84
2023-05-25T12:17:50.834Z,97744.84
2023-05-25T12:20:18.637Z,97745.69
2023-05-25T12:22:46.885Z,97747.75
2023-05-25T12:25:16.131Z,97746.56
2023-05-25T12:27:44.082Z,97759.09
2023-05-25T12:30:12.010Z,97770.38
2023-05-25T12:32:55.689Z,97783.44
2023-05-25T12:35:23.080Z,97796.75
2023-05-25T12:37:50.123Z,97810.72
2023-05-25T12:40:21.504Z,97819.91
2023-05-25T12:42:57.339Z,97830.03
2023-05-25T12:45:24.866Z,97848.19
2023-05-25T12:47:52.013Z,97852.56
2023-05-25T12:50:19.709Z,97850.47
2023-05-25T12:52:48.050Z,97853.28
2023-05-25T12:55:28.800Z,97854.13
2023-05-25T12:58:04.890Z,97856.97
2023-05-25T13:00:34.773Z,97853.78
2023-05-25T13:03:02.745Z,97862.91
2023-05-25T13:05:33.044Z,97855.38
2023-05-25T13:08:00.235Z,97859.13
2023-05-25T13:10:29.199Z,97855.97
2023-05-25T13:12:58.580Z,97844.59
2023-05-25T13:15:27.102Z,97832.69
2023-05-25T13:17:56.594Z,97832.81
2023-05-25T13:20:27.733Z,97823.03
2023-05-25T13:22:57.510Z,97813.47
2023-05-25T13:25:27.608Z,97813.03
2023-05-25T13:27:57.018Z,97814.28
2023-05-25T13:30:24.089Z,97806.06
2023-05-25T13:32:52.848Z,97800.28
2023-05-25T13:35:37.333Z,97788.06
2023-05-25T13:38:04.724Z,97775.94
2023-05-25T13:40:31.851Z,97775.53
2023-05-25T13:42:58.894Z,97766.56
2023-05-25T13:45:25.894Z,97761.25
2023-05-25T13:47:53.168Z,97751.47
2023-05-25T13:50:20.375Z,97751.91
2023-05-25T13:52:47.528Z,97740.47
2023-05-25T13:55:14.638Z,97729.56
2023-05-25T13:57:41.628Z,97724.69
2023-05-25T14:00:09.580Z,97721.84
2023-05-25T14:02:37.468Z,97715.94
2023-05-25T14:05:05.227Z,97713.06
2023-05-25T14:07:32.956Z,97707.34
2023-05-25T14:10:00.395Z,97700.06
2023-05-25T14:12:27.906Z,97687.66
2023-05-25T14:14:55.017Z,97676.81
2023-05-25T14:17:22.024Z,97676.38
2023-05-25T14:19:49.083Z,97678.09
2023-05-25T14:22:16.088Z,97685.94
2023-05-25T14:24:43.110Z,97681.47
2023-05-25T14:27:10.194Z,97671.13
2023-05-25T14:29:37.325Z,97666.31
2023-05-25T14:32:04.744Z,97666.56
2023-05-25T14:34:31.859Z,97658.53
2023-05-25T14:36:58.896Z,97658.97
2023-05-25T14:39:26.728Z,97644.59
2023-05-25T14:41:53.793Z,97654.81
2023-05-25T14:44:20.980Z,97645.00
2023-05-25T14:46:48.094Z,97648.09
2023-05-25T14:49:16.904Z,97636.81
2023-05-25T14:51:43.923Z,97635.97
2023-05-25T14:54:13.806Z,97636.44
2023-05-25T14:56:40.892Z,97640.88
2023-05-25T14:59:08.052Z,97633.00
2023-05-25T15:01:35.570Z,97632.53
2023-05-25T15:04:03.437Z,97631.19
2023-05-25T15:06:32.102Z,97644.31
2023-05-25T15:08:59.087Z,97639.00
2023-05-25T15:11:26.994Z,97638.25
2023-05-25T15:13:54.341Z,97639.75
2023-05-25T15:16:21.458Z,97638.00
2023-05-25T15:18:48.644Z,97634.28
2023-05-25T15:21:15.623Z,97641.84
2023-05-25T15:23:42.633Z,97649.06
2023-05-25T15:26:11.747Z,97644.78
2023-05-25T15:28:38.777Z,97643.59
2023-05-25T15:31:05.954Z,97651.56
2023-05-25T15:33:48.478Z,97656.88
2023-05-25T15:36:19.211Z,97665.44
2023-05-25T15:38:49.380Z,97674.03
2023-05-25T15:41:17.514Z,97669.78
2023-05-25T15:43:54.681Z,97687.59
2023-05-25T15:46:21.982Z,97680.66
2023-05-25T15:48:49.086Z,97683.72
2023-05-25T15:51:16.183Z,97686.38
2023-05-25T15:53:43.273Z,97692.97
2023-05-25T15:56:10.532Z,97686.81
2023-05-25T15:58:37.594Z,97703.78
2023-05-25T16:01:05.142Z,97696.22
2023-05-25T16:03:32.366Z,97692.94
2023-05-25T16:05:59.512Z,97695.63
2023-05-25T16:08:26.562Z,97690.50
2023-05-25T16:10:53.630Z,97694.56
2023-05-25T16:13:20.852Z,97687.03
2023-05-25T16:15:48.030Z,97684.75
2023-05-25T16:18:16.808Z,97680.03
2023-05-25T16:20:44.274Z,97693.34
2023-05-25T16:23:11.688Z,97690.50
2023-05-25T16:25:38.731Z,97690.28
2023-05-25T16:28:05.775Z,97694.38
2023-05-25T16:30:32.947Z,97692.13
2023-05-25T16:33:00.081Z,97695.78
2023-05-25T16:35:27.120Z,97699.69
2023-05-25T16:37:54.123Z,97701.13
2023-05-25T16:40:21.239Z,97704.00
2023-05-25T16:42:48.463Z,97702.53
2023-05-25T16:45:15.529Z,97702.31
2023-05-25T16:47:42.654Z,97704.75
2023-05-25T16:50:10.290Z,97710.06
2023-05-25T16:52:37.345Z,97713.69
2023-05-25T16:55:04.828Z,97706.66
2023-05-25T16:57:31.834Z,97710.09
2023-05-25T16:59:58.837Z,97711.50
2023-05-25T17:02:26.349Z,97722.56
2023-05-25T17:07:21.030Z,97715.88
2023-05-25T17:09:47.999Z,97723.47
2023-05-25T17:12:15.116Z,97725.31
2023-05-25T17:14:42.112Z,97722.84
2023-05-25T17:17:09.150Z,97716.88
2023-05-25T17:19:36.245Z,97720.72
2023-05-25T17:22:03.237Z,97725.81
2023-05-25T17:24:30.355Z,97723.38
2023-05-25T17:26:57.420Z,97713.09
2023-05-25T17:29:24.450Z,97720.81
2023-05-25T17:31:51.581Z,97716.50
2023-05-25T17:34:18.723Z,97720.13
2023-05-25T17:36:45.856Z,97723.16
2023-05-25T17:39:12.950Z,97722.16
2023-05-25T17:41:40.058Z,97711.84
2023-05-25T17:44:07.115Z,97711.78
2023-05-25T17:46:34.173Z,97717.53
2023-05-25T17:49:01.267Z,97720.25
2023-05-25T17:51:28.273Z,97726.31
2023-05-25T17:53:55.271Z,97724.75
2023-05-25T17:56:22.367Z,97728.19
2023-05-25T17:58:49.476Z,97737.88
2023-05-25T18:01:17.168Z,97738.41
2023-05-25T18:03:44.482Z,97738.75
2023-05-25T18:06:11.660Z,97738.88
2023-05-25T18:08:38.773Z,97746.00
2023-05-25T18:11:05.965Z,97750.91
2023-05-25T18:13:33.093Z,97757.59
2023-05-25T18:16:00.184Z,97755.16
2023-05-25T18:18:27.510Z,97759.97
2023-05-25T18:20:54.501Z,97756.03
2023-05-25T18:23:22.515Z,97753.59
2023-05-25T18:25:49.607Z,97749.19
2023-05-25T18:28:16.656Z,97749.47
2023-05-25T18:30:43.812Z,97754.28
2023-05-25T18:33:11.150Z,97762.22
2023-05-25T18:35:38.634Z,97765.88
2023-05-25T18:38:06.889Z,97768.91
2023-05-25T18:40:34.064Z,97764.16
2023-05-25T18:43:01.189Z,97768.72
2023-05-25T18:45:28.204Z,97767.59
2023-05-25T18:47:55.249Z,97769.34
2023-05-25T18:50:22.341Z,97762.47
2023-05-25T18:52:51.621Z,97760.44
2023-05-25T18:55:19.349Z,97765.59
2023-05-25T18:57:46.965Z,97770.91
2023-05-25T19:00:14.958Z,97772.44
2023-05-25T19:02:42.212Z,97773.66
2023-05-25T19:05:11.866Z,97774.22
2023-05-25T19:07:58.344Z,97780.19
2023-05-25T19:10:26.665Z,97777.19
2023-05-25T19:12:53.707Z,97778.81
2023-05-25T19:15:20.826Z,97778.88
2023-05-25T19:17:48.073Z,97784.34
2023-05-25T19:20:15.514Z,97778.19
2023-05-25T19:22:42.732Z,97783.59
2023-05-25T19:25:09.976Z,97777.31
2023-05-25T19:27:37.129Z,97784.78
2023-05-25T19:30:04.557Z,97786.84
2023-05-25T19:32:31.666Z,97782.53
2023-05-25T19:34:58.752Z,97782.16
2023-05-25T19:37:26.528Z,97782.00
2023-05-25T19:39:53.773Z,97776.56
2023-05-25T19:42:20.985Z,97782.72
2023-05-25T19:44:48.174Z,97779.41
2023-05-25T19:47:15.249Z,97784.03
2023-05-25T19:49:42.917Z,97775.16
2023-05-25T19:52:10.029Z,97788.38
2023-05-25T19:54:37.080Z,97793.44
2023-05-25T19:57:04.229Z,97789.97
2023-05-25T19:59:31.653Z,97792.53
2023-05-25T20:01:58.861Z,97783.13
2023-05-25T20:04:26.355Z,97789.78
2023-05-25T20:06:54.111Z,97792.75
2023-05-25T20:09:29.992Z,97791.38
2023-05-25T20:12:00.944Z,97790.03
2023-05-25T20:14:27.952Z,97793.19
2023-05-25T20:16:56.025Z,97788.59
2023-05-25T20:19:23.476Z,97789.41
2023-05-25T20:21:50.903Z,97779.97
2023-05-25T20:24:18.255Z,97782.78
2023-05-25T20:26:45.547Z,97783.16
2023-05-25T20:29:12.672Z,97782.63
2023-05-25T20:31:40.572Z,97786.75
2023-05-25T20:34:07.686Z,97783.91
2023-05-25T20:36:34.672Z,97784.03
2023-05-25T20:39:03.287Z,97777.72
2023-05-25T20:41:30.550Z,97781.34
2023-05-25T20:43:58.073Z,97776.69
2023-05-25T20:46:25.258Z,97767.75
2023-05-25T20:48:53.608Z,97777.06
2023-05-25T20:51:21.972Z,97773.75
2023-05-25T20:53:49.049Z,97769.22
2023-05-25T20:56:16.248Z,97770.38
2023-05-25T20:58:43.423Z,97769.03
2023-05-25T21:01:10.704Z,97764.75
2023-05-25T21:03:37.914Z,97767.53
2023-05-25T21:06:05.079Z,97768.84
2023-05-25T21:08:33.560Z,97765.72
2023-05-25T21:11:01.044Z,97765.91
2023-05-25T21:13:28.064Z,97764.56
2023-05-25T21:15:55.394Z,97762.97
2023-05-25T21:18:22.497Z,97756.88
2023-05-25T21:20:49.619Z,97761.72
2023-05-25T21:23:16.928Z,97759.41
2023-05-25T21:25:44.305Z,97760.94
2023-05-25T21:28:11.532Z,97766.22
2023-05-25T21:30:38.574Z,97760.41
2023-05-25T21:33:05.819Z,97756.47
2023-05-25T21:35:32.855Z,97755.84
2023-05-25T21:37:59.905Z,97759.47
2023-05-25T21:40:26.976Z,97756.47
2023-05-25T21:42:54.413Z,97751.84
2023-05-25T21:45:21.912Z,97742.94
2023-05-25T21:47:49.026Z,97740.00
2023-05-25T21:50:16.349Z,97741.91
2023-05-25T21:52:43.596Z,97748.41
2023-05-25T21:55:10.864Z,97749.44
2023-05-25T21:57:37.933Z,97744.03
2023-05-25T22:00:06.705Z,97735.66
2023-05-25T22:02:39.790Z,97741.88
2023-05-25T22:05:07.339Z,97735.78
2023-05-25T22:07:34.334Z,97738.59
2023-05-25T22:10:01.437Z,97738.59
2023-05-25T22:12:28.453Z,97739.94
2023-05-25T22:14:55.672Z,97729.56
2023-05-25T22:17:22.752Z,97729.88
2023-05-25T22:20:03.249Z,97716.34
2023-05-25T22:22:34.206Z,97725.13
2023-05-25T22:25:01.420Z,97722.66
2023-05-25T22:27:28.519Z,97727.81
2023-05-25T22:29:55.770Z,97724.38
2023-05-25T22:32:23.290Z,97726.00
2023-05-25T22:34:50.452Z,97721.19
2023-05-25T22:37:17.611Z,97724.81
2023-05-25T22:39:45.010Z,97729.09
2023-05-25T22:42:12.087Z,97727.31
2023-05-25T22:44:39.321Z,97716.06
2023-05-25T22:47:06.581Z,97719.72
2023-05-25T22:49:42.643Z,97722.88
2023-05-25T22:52:11.470Z,97717.78
2023-05-25T22:54:38.502Z,97716.13
2023-05-25T22:57:06.005Z,97722.41
2023-05-25T22:59:33.082Z,97725.50
2023-05-25T23:02:00.293Z,97717.41
2023-05-25T23:04:27.528Z,97720.50
2023-05-25T23:06:54.632Z,97715.06
2023-05-25T23:09:21.658Z,97718.06
2023-05-25T23:11:48.678Z,97722.53
2023-05-25T23:14:15.707Z,97715.78
2023-05-25T23:16:42.845Z,97717.91
2023-05-25T23:19:09.956Z,97718.72
2023-05-25T23:21:37.123Z,97709.34
2023-05-25T23:24:04.394Z,97711.31
2023-05-25T23:26:31.605Z,97707.34
2023-05-25T23:28:58.783Z,97708.84
2023-05-25T23:31:25.946Z,97702.75
2023-05-25T23:33:53.059Z,97701.94
2023-05-25T23:36:20.999Z,97708.50
2023-05-25T23:38:47.997Z,97705.06
2023-05-25T23:41:16.614Z,97705.06
2023-05-25T23:43:43.672Z,97705.72
2023-05-25T23:46:10.820Z,97703.31
2023-05-25T23:48:37.854Z,97707.53
2023-05-25T23:51:07.572Z,97710.72
2023-05-25T23:53:34.662Z,97704.63
2023-05-25T23:56:01.646Z,97707.94
2023-05-25T23:58:28.788Z,97715.03
